createdAt,value
2017-11-07T00:00:30.664Z,81.37
2017-11-07T00:02:56.702Z,81.56
2017-11-07T00:05:22.790Z,80.64
2017-11-07T00:07:49.314Z,80.91
2017-11-07T00:10:15.414Z,80.82
2017-11-07T00:12:41.573Z,80.65
2017-11-07T00:15:07.659Z,80.75
2017-11-07T00:17:33.770Z,80.68
2017-11-07T00:20:00.286Z,80.76
2017-11-07T00:22:34.502Z,80.88
2017-11-07T00:25:01.046Z,80.94
2017-11-07T00:27:27.211Z,80.72
2017-11-07T00:29:53.301Z,81.13
2017-11-07T00:32:19.374Z,81.06
2017-11-07T00:34:45.446Z,81.34
2017-11-07T00:37:11.879Z,81.24
2017-11-07T00:39:37.950Z,81.31
2017-11-07T00:42:04.052Z,80.50
2017-11-07T00:44:30.150Z,80.89
2017-11-07T00:46:56.243Z,81.43
2017-11-07T00:49:22.733Z,80.71
2017-11-07T00:51:48.858Z,81.06
2017-11-07T00:54:14.923Z,80.67
2017-11-07T00:56:41.327Z,81.02
2017-11-07T00:59:07.473Z,80.89
2017-11-07T01:01:33.627Z,81.11
2017-11-07T01:04:00.030Z,81.38
2017-11-07T01:06:26.123Z,81.36
2017-11-07T01:08:52.200Z,81.48
2017-11-07T01:11:18.360Z,81.46
2017-11-07T01:13:44.438Z,81.81
2017-11-07T01:16:10.947Z,81.78
2017-11-07T01:18:37.018Z,81.52
2017-11-07T01:21:03.102Z,81.24
2017-11-07T01:23:29.131Z,81.84
2017-11-07T01:25:55.276Z,81.49
2017-11-07T01:28:21.895Z,81.35
2017-11-07T01:30:47.987Z,81.63
2017-11-07T01:33:14.047Z,81.60
2017-11-07T01:35:40.583Z,81.26
2017-11-07T01:38:06.691Z,81.40
2017-11-07T01:40:32.836Z,81.45
2017-11-07T01:42:58.947Z,81.37
2017-11-07T01:45:25.043Z,81.29
2017-11-07T01:47:51.629Z,81.60
2017-11-07T01:50:17.719Z,82.11
2017-11-07T01:52:43.845Z,81.94
2017-11-07T01:55:10.333Z,82.30
2017-11-07T01:57:36.461Z,82.27
2017-11-07T02:00:02.572Z,82.00
2017-11-07T02:02:28.662Z,82.25
2017-11-07T02:04:54.769Z,82.12
2017-11-07T02:07:21.220Z,82.31
2017-11-07T02:09:47.325Z,82.34
2017-11-07T02:12:13.459Z,82.25
2017-11-07T02:14:39.602Z,82.06
2017-11-07T02:17:05.740Z,82.53
2017-11-07T02:19:32.227Z,82.59
2017-11-07T02:21:58.277Z,82.71
2017-11-07T02:24:24.310Z,82.55
2017-11-07T02:26:50.336Z,82.92
2017-11-07T02:29:16.463Z,82.98
2017-11-07T02:31:43.011Z,83.06
2017-11-07T02:34:09.047Z,82.93
2017-11-07T02:36:35.112Z,83.15
2017-11-07T02:39:01.634Z,83.05
2017-11-07T02:41:27.792Z,82.98
2017-11-07T02:43:53.844Z,83.24
2017-11-07T02:46:20.289Z,83.04
2017-11-07T02:48:46.384Z,83.18
2017-11-07T02:51:12.461Z,82.99
2017-11-07T02:53:38.538Z,82.98
2017-11-07T02:56:04.616Z,83.42
2017-11-07T02:58:31.181Z,83.37
2017-11-07T03:00:57.298Z,83.32
2017-11-07T03:03:23.466Z,83.39
2017-11-07T03:05:49.565Z,83.41
2017-11-07T03:08:15.666Z,83.32
2017-11-07T03:10:42.246Z,83.26
2017-11-07T03:13:08.379Z,83.59
2017-11-07T03:15:34.428Z,83.63
2017-11-07T03:18:00.886Z,83.81
2017-11-07T03:20:26.990Z,84.02
2017-11-07T03:22:53.118Z,83.84
2017-11-07T03:25:19.237Z,84.10
2017-11-07T03:27:45.301Z,84.22
2017-11-07T03:30:11.720Z,84.14
2017-11-07T03:32:37.866Z,84.26
2017-11-07T03:35:03.998Z,84.53
2017-11-07T03:37:30.134Z,84.43
2017-11-07T03:39:56.259Z,84.36
2017-11-07T03:42:22.698Z,84.67
2017-11-07T03:44:48.843Z,85.03
2017-11-07T03:47:15.018Z,84.78
2017-11-07T03:49:41.123Z,85.01
2017-11-07T03:52:07.212Z,84.81
2017-11-07T03:54:33.752Z,84.99
2017-11-07T03:56:59.822Z,84.95
2017-11-07T03:59:25.905Z,84.70
2017-11-07T04:01:52.460Z,85.16
2017-11-07T04:04:18.557Z,84.65
2017-11-07T04:06:44.831Z,84.48
2017-11-07T04:09:10.966Z,84.27
2017-11-07T04:11:37.106Z,84.79
2017-11-07T04:14:03.205Z,84.50
2017-11-07T04:16:29.735Z,84.55
2017-11-07T04:18:55.814Z,84.47
2017-11-07T04:21:21.886Z,84.55
2017-11-07T04:23:48.430Z,84.48
2017-11-07T04:26:14.552Z,84.58
2017-11-07T04:28:40.605Z,84.86
2017-11-07T04:31:06.693Z,84.94
2017-11-07T04:33:32.750Z,85.01
2017-11-07T04:35:59.246Z,85.24
2017-11-07T04:38:25.323Z,85.04
2017-11-07T04:40:51.516Z,85.22
2017-11-07T04:43:17.621Z,85.29
2017-11-07T04:45:43.694Z,85.24
2017-11-07T04:48:10.206Z,85.52
2017-11-07T04:50:36.351Z,85.47
2017-11-07T04:53:02.371Z,85.44
2017-11-07T04:55:28.819Z,85.53
2017-11-07T04:57:54.871Z,85.81
2017-11-07T05:00:20.958Z,85.56
2017-11-07T05:02:47.396Z,85.68
2017-11-07T05:05:13.489Z,86.13
2017-11-07T05:07:39.512Z,85.98
2017-11-07T05:10:05.702Z,86.17
2017-11-07T05:12:31.853Z,86.43
2017-11-07T05:14:58.199Z,86.39
2017-11-07T05:17:24.286Z,86.40
2017-11-07T05:19:50.388Z,86.68
2017-11-07T05:22:16.791Z,86.45
2017-11-07T05:24:42.903Z,86.31
2017-11-07T05:27:08.933Z,86.58
2017-11-07T05:29:35.394Z,86.33
2017-11-07T05:32:01.490Z,86.41
2017-11-07T05:34:27.542Z,86.28
2017-11-07T05:36:53.655Z,86.74
2017-11-07T05:39:19.731Z,86.40
2017-11-07T05:41:46.165Z,86.39
2017-11-07T05:44:12.230Z,86.55
2017-11-07T05:46:38.315Z,86.21
2017-11-07T05:49:04.683Z,86.42
2017-11-07T05:51:30.764Z,86.52
2017-11-07T05:53:56.821Z,86.59
2017-11-07T05:56:22.969Z,86.46
2017-11-07T05:58:49.042Z,86.46
2017-11-07T06:01:15.570Z,86.66
2017-11-07T06:03:41.655Z,86.63
2017-11-07T06:06:07.733Z,86.67
2017-11-07T06:08:33.933Z,86.90
2017-11-07T06:11:00.015Z,86.80
2017-11-07T06:13:26.120Z,86.86
2017-11-07T06:15:52.238Z,87.02
2017-11-07T06:18:18.364Z,87.40
2017-11-07T06:20:44.558Z,87.17
2017-11-07T06:23:10.639Z,87.45
2017-11-07T06:25:36.718Z,87.73
2017-11-07T06:28:02.764Z,87.70
2017-11-07T06:30:28.819Z,87.88
2017-11-07T06:32:54.922Z,87.80
2017-11-07T06:35:21.014Z,87.96
2017-11-07T06:37:47.951Z,88.04
2017-11-07T06:40:14.442Z,88.11
2017-11-07T06:42:40.523Z,88.03
2017-11-07T06:45:06.682Z,87.96
2017-11-07T06:47:32.785Z,87.83
2017-11-07T06:49:58.798Z,88.01
2017-11-07T06:52:24.891Z,87.99
2017-11-07T06:54:50.966Z,87.95
2017-11-07T06:57:17.098Z,87.93
2017-11-07T06:59:43.226Z,87.62
2017-11-07T07:02:09.350Z,87.87
2017-11-07T07:04:35.420Z,87.77
2017-11-07T07:07:01.578Z,87.58
2017-11-07T07:09:27.654Z,87.66
2017-11-07T07:11:53.746Z,87.43
2017-11-07T07:14:19.829Z,87.32
2017-11-07T07:16:46.102Z,87.45
2017-11-07T07:19:12.178Z,87.35
2017-11-07T07:21:38.264Z,87.10
2017-11-07T07:24:04.408Z,87.01
2017-11-07T07:26:30.519Z,86.83
2017-11-07T07:28:56.615Z,86.91
2017-11-07T07:31:22.679Z,86.79
2017-11-07T07:33:48.803Z,86.33
2017-11-07T07:36:14.839Z,86.21
2017-11-07T07:38:40.959Z,86.48
2017-11-07T07:41:07.052Z,86.07
2017-11-07T07:43:33.183Z,86.23
2017-11-07T07:45:59.271Z,86.14
2017-11-07T07:48:25.358Z,85.98
2017-11-07T07:50:51.811Z,85.77
2017-11-07T07:53:17.882Z,85.83
2017-11-07T07:55:43.970Z,85.64
2017-11-07T07:58:10.061Z,85.63
2017-11-07T08:00:36.151Z,85.83
2017-11-07T08:03:02.238Z,85.57
2017-11-07T08:05:28.640Z,85.34
2017-11-07T08:07:54.711Z,85.44
2017-11-07T08:10:20.821Z,85.79
2017-11-07T08:12:46.973Z,85.70
2017-11-07T08:15:13.099Z,85.85
2017-11-07T08:17:39.311Z,85.65
2017-11-07T08:20:05.766Z,85.55
2017-11-07T08:22:31.820Z,85.07
2017-11-07T08:24:57.913Z,85.04
2017-11-07T08:27:23.983Z,84.42
2017-11-07T08:29:50.123Z,84.77
2017-11-07T08:32:16.219Z,85.04
2017-11-07T08:34:42.319Z,85.08
2017-11-07T08:37:08.455Z,85.04
2017-11-07T08:39:34.532Z,84.70
2017-11-07T08:42:00.694Z,85.05
2017-11-07T08:44:26.748Z,84.70
2017-11-07T08:46:52.815Z,84.33
2017-11-07T08:49:18.929Z,84.48
2017-11-07T08:51:45.065Z,84.53
2017-11-07T08:54:11.145Z,84.67
2017-11-07T08:56:37.287Z,84.83
2017-11-07T08:59:03.482Z,84.67
2017-11-07T09:01:29.615Z,84.32
2017-11-07T09:03:55.705Z,84.49
2017-11-07T09:06:21.804Z,84.49
2017-11-07T09:08:47.894Z,84.57
2017-11-07T09:11:13.958Z,84.67
2017-11-07T09:13:40.021Z,84.83
2017-11-07T09:16:06.082Z,84.76
2017-11-07T09:18:32.198Z,84.47
2017-11-07T09:20:58.305Z,85.18
2017-11-07T09:23:24.659Z,84.95
2017-11-07T09:25:50.747Z,85.01
2017-11-07T09:28:16.823Z,84.74
2017-11-07T09:30:42.965Z,84.76
2017-11-07T09:33:09.090Z,84.38
2017-11-07T09:35:35.211Z,84.62
2017-11-07T09:38:01.292Z,84.98
2017-11-07T09:40:27.373Z,84.83
2017-11-07T09:42:53.533Z,85.02
2017-11-07T09:45:19.673Z,84.74
2017-11-07T09:47:45.754Z,84.51
2017-11-07T09:50:11.931Z,84.96
2017-11-07T09:52:38.228Z,84.66
2017-11-07T09:55:04.292Z,84.86
2017-11-07T09:57:30.590Z,84.86
2017-11-07T09:59:56.674Z,84.85
2017-11-07T10:02:22.790Z,84.42
2017-11-07T10:04:49.029Z,84.53
2017-11-07T10:07:15.079Z,84.13
2017-11-07T10:09:41.154Z,83.94
2017-11-07T10:12:07.245Z,83.68
2017-11-07T10:14:33.335Z,83.18
2017-11-07T10:16:59.554Z,83.32
2017-11-07T10:19:25.646Z,83.25
2017-11-07T10:21:51.775Z,83.10
2017-11-07T10:24:17.893Z,83.44
2017-11-07T10:26:43.973Z,83.43
2017-11-07T10:29:10.126Z,83.06
2017-11-07T10:31:36.194Z,83.19
2017-11-07T10:34:02.304Z,83.20
2017-11-07T10:36:28.414Z,83.14
2017-11-07T10:38:54.559Z,82.98
2017-11-07T10:41:20.755Z,82.59
2017-11-07T10:43:46.902Z,82.60
2017-11-07T10:46:12.980Z,82.52
2017-11-07T10:48:39.199Z,82.41
2017-11-07T10:51:05.326Z,82.00
2017-11-07T10:53:31.388Z,81.92
2017-11-07T10:55:57.474Z,81.42
2017-11-07T10:58:23.673Z,81.46
2017-11-07T11:00:49.791Z,81.43
2017-11-07T11:03:15.894Z,81.25
2017-11-07T11:05:41.938Z,81.40
2017-11-07T11:08:08.081Z,80.80
2017-11-07T11:10:34.176Z,80.70
2017-11-07T11:13:00.298Z,81.09
2017-11-07T11:15:26.419Z,80.76
2017-11-07T11:17:52.523Z,80.54
2017-11-07T11:20:18.675Z,80.80
2017-11-07T11:22:44.776Z,79.54
2017-11-07T11:25:10.894Z,79.18
2017-11-07T11:27:36.998Z,79.75
2017-11-07T11:30:03.117Z,79.07
2017-11-07T11:32:29.210Z,78.08
2017-11-07T11:37:21.240Z,78.65
2017-11-07T11:39:47.315Z,77.88
2017-11-07T11:42:13.434Z,78.81
2017-11-07T11:44:39.597Z,78.65
2017-11-07T11:47:05.666Z,78.50
2017-11-07T11:49:31.902Z,78.62
2017-11-07T11:51:58.143Z,79.06
2017-11-07T11:54:24.243Z,78.36
2017-11-07T11:56:51.367Z,78.40
2017-11-07T11:59:17.458Z,78.94
2017-11-07T12:01:43.543Z,78.63
2017-11-07T12:04:09.662Z,78.64
2017-11-07T12:06:35.761Z,78.58
2017-11-07T12:09:01.909Z,78.63
2017-11-07T12:11:27.974Z,78.98
2017-11-07T12:13:54.087Z,78.47
2017-11-07T12:16:20.319Z,78.39
2017-11-07T12:18:46.449Z,78.35
2017-11-07T12:21:12.622Z,77.73
2017-11-07T12:23:38.759Z,78.12
2017-11-07T12:28:38.054Z,77.62
2017-11-07T12:31:04.165Z,77.85
2017-11-07T12:33:30.255Z,78.08
2017-11-07T12:35:56.354Z,78.24
2017-11-07T12:38:22.441Z,77.97
2017-11-07T12:40:48.583Z,77.66
2017-11-07T12:43:14.700Z,76.81
2017-11-07T12:45:40.778Z,76.92
2017-11-07T12:48:06.871Z,76.95
2017-11-07T12:50:45.165Z,75.98
2017-11-07T12:53:11.248Z,75.70
2017-11-07T12:55:37.331Z,77.04
2017-11-07T12:58:03.488Z,77.11
2017-11-07T13:00:29.582Z,77.30
2017-11-07T13:02:55.695Z,76.78
2017-11-07T13:05:21.850Z,77.02
2017-11-07T13:07:47.879Z,77.06
2017-11-07T13:10:13.975Z,76.15
2017-11-07T13:12:40.064Z,75.22
2017-11-07T13:15:06.178Z,75.97
2017-11-07T13:17:32.306Z,75.59
2017-11-07T13:19:58.423Z,75.32
2017-11-07T13:22:24.558Z,74.50
2017-11-07T13:24:50.619Z,75.02
2017-11-07T13:27:16.749Z,75.68
2017-11-07T13:29:42.865Z,74.91
2017-11-07T13:32:08.939Z,74.37
2017-11-07T13:34:35.032Z,74.09
2017-11-07T13:37:01.107Z,74.18
2017-11-07T13:39:27.194Z,74.22
2017-11-07T13:41:53.314Z,74.37
2017-11-07T13:44:19.454Z,73.92
2017-11-07T13:46:45.571Z,73.56
2017-11-07T13:49:11.647Z,73.23
2017-11-07T13:51:37.839Z,73.15
2017-11-07T13:54:04.065Z,73.40
2017-11-07T13:56:30.134Z,73.98
2017-11-07T13:58:56.247Z,74.26
2017-11-07T14:01:22.364Z,74.79
2017-11-07T14:03:48.540Z,75.24
2017-11-07T14:06:14.631Z,75.81
2017-11-07T14:08:40.706Z,76.82
2017-11-07T14:11:06.789Z,76.54
2017-11-07T14:13:32.883Z,76.83
2017-11-07T14:15:58.990Z,76.89
2017-11-07T14:18:25.024Z,75.86
2017-11-07T14:20:51.163Z,75.64
2017-11-07T14:23:17.257Z,75.79
2017-11-07T14:25:43.364Z,75.38
2017-11-07T14:28:09.533Z,75.43
2017-11-07T14:30:35.595Z,75.77
2017-11-07T14:33:01.704Z,75.67
2017-11-07T14:35:27.803Z,75.85
2017-11-07T14:37:53.878Z,76.17
2017-11-07T14:40:20.419Z,76.73
2017-11-07T14:42:46.507Z,76.80
2017-11-07T14:45:12.582Z,76.71
2017-11-07T14:47:38.699Z,77.05
2017-11-07T14:50:04.784Z,77.42
2017-11-07T14:52:30.911Z,77.80
2017-11-07T14:54:57.007Z,77.58
2017-11-07T14:57:23.102Z,77.98
2017-11-07T14:59:49.210Z,78.24
2017-11-07T15:02:16.225Z,78.58
2017-11-07T15:04:42.346Z,78.71
2017-11-07T15:07:08.490Z,78.43
2017-11-07T15:09:34.652Z,78.75
2017-11-07T15:12:00.758Z,78.89
2017-11-07T15:14:26.855Z,78.79
2017-11-07T15:16:52.956Z,78.82
2017-11-07T15:19:19.035Z,79.00
2017-11-07T15:21:45.113Z,79.20
2017-11-07T15:24:11.238Z,78.76
2017-11-07T15:26:37.347Z,79.03
2017-11-07T15:29:03.459Z,79.02
2017-11-07T15:31:29.530Z,79.17
2017-11-07T15:33:55.596Z,79.22
2017-11-07T15:36:21.725Z,79.17
2017-11-07T15:38:48.005Z,79.27
2017-11-07T15:41:14.124Z,79.17
2017-11-07T15:43:40.242Z,79.17
2017-11-07T15:46:06.392Z,79.34
2017-11-07T15:48:32.474Z,79.26
2017-11-07T15:50:58.621Z,79.37
2017-11-07T15:53:24.728Z,79.38
2017-11-07T15:55:50.885Z,78.77
2017-11-07T15:58:16.939Z,78.97
2017-11-07T16:00:43.047Z,79.03
2017-11-07T16:03:09.138Z,78.31
2017-11-07T16:05:35.180Z,78.38
2017-11-07T16:08:01.331Z,78.46
2017-11-07T16:10:27.351Z,78.59
2017-11-07T16:12:53.430Z,78.59
2017-11-07T16:15:19.515Z,78.73
2017-11-07T16:17:45.651Z,78.40
2017-11-07T16:20:11.757Z,78.86
2017-11-07T16:22:37.880Z,79.09
2017-11-07T16:25:04.303Z,79.20
2017-11-07T16:27:30.475Z,80.52
2017-11-07T16:29:56.706Z,80.30
2017-11-07T16:32:22.825Z,80.16
2017-11-07T16:34:48.992Z,80.19
2017-11-07T16:37:15.075Z,80.56
2017-11-07T16:39:41.228Z,80.99
2017-11-07T16:42:07.338Z,80.87
2017-11-07T16:44:33.439Z,80.46
2017-11-07T16:46:59.549Z,80.84
2017-11-07T16:49:25.615Z,80.46
2017-11-07T16:51:51.770Z,80.74
2017-11-07T16:54:17.885Z,80.90
2017-11-07T16:56:43.984Z,81.34
2017-11-07T16:59:10.102Z,81.38
2017-11-07T17:01:36.218Z,81.51
2017-11-07T17:04:02.343Z,81.87
2017-11-07T17:06:28.439Z,81.58
2017-11-07T17:08:54.519Z,81.75
2017-11-07T17:11:20.708Z,82.45
2017-11-07T17:13:46.831Z,82.88
2017-11-07T17:16:12.919Z,82.47
2017-11-07T17:18:39.019Z,82.40
2017-11-07T17:21:05.057Z,82.93
2017-11-07T17:23:31.284Z,82.66
2017-11-07T17:25:57.459Z,83.00
2017-11-07T17:28:23.551Z,83.10
2017-11-07T17:30:49.700Z,83.04
2017-11-07T17:33:15.750Z,83.64
2017-11-07T17:35:41.971Z,83.11
2017-11-07T17:38:08.191Z,83.48
2017-11-07T17:40:34.329Z,83.05
2017-11-07T17:43:00.426Z,82.58
2017-11-07T17:45:26.558Z,82.69
2017-11-07T17:47:52.640Z,82.70
2017-11-07T17:50:18.753Z,82.58
2017-11-07T17:52:44.934Z,82.50
2017-11-07T17:55:11.043Z,82.96
2017-11-07T17:57:37.142Z,82.86
2017-11-07T18:00:03.365Z,83.04
2017-11-07T18:02:29.526Z,82.93
2017-11-07T18:04:55.694Z,82.88
2017-11-07T18:07:21.829Z,82.91
2017-11-07T18:09:48.060Z,83.15
2017-11-07T18:12:14.196Z,83.38
2017-11-07T18:14:40.337Z,83.46
2017-11-07T18:17:06.491Z,83.54
2017-11-07T18:19:32.618Z,83.20
2017-11-07T18:21:58.718Z,83.32
2017-11-07T18:24:24.923Z,83.45
2017-11-07T18:26:50.987Z,83.52
2017-11-07T18:29:17.117Z,83.37
2017-11-07T18:31:43.241Z,83.27
2017-11-07T18:34:09.433Z,83.17
2017-11-07T18:36:35.860Z,82.96
2017-11-07T18:39:02.061Z,82.99
2017-11-07T18:41:28.245Z,83.08
2017-11-07T18:43:54.415Z,83.27
2017-11-07T18:46:20.630Z,83.16
2017-11-07T18:48:46.806Z,82.93
2017-11-07T18:51:13.036Z,82.96
2017-11-07T18:53:39.401Z,82.62
2017-11-07T18:56:05.625Z,82.60
2017-11-07T18:58:31.899Z,82.49
2017-11-07T19:00:58.123Z,82.50
2017-11-07T19:03:24.368Z,82.31
2017-11-07T19:05:50.599Z,82.45
2017-11-07T19:08:16.772Z,82.49
2017-11-07T19:10:42.926Z,82.70
2017-11-07T19:13:09.301Z,82.68
2017-11-07T19:15:35.804Z,83.01
2017-11-07T19:18:01.982Z,82.68
2017-11-07T19:20:28.191Z,82.85
2017-11-07T19:22:54.517Z,82.98
2017-11-07T19:25:20.730Z,83.14
2017-11-07T19:27:47.000Z,82.98
2017-11-07T19:30:13.326Z,83.16
2017-11-07T19:32:39.581Z,83.04
2017-11-07T19:35:05.793Z,83.09
2017-11-07T19:37:32.044Z,83.05
2017-11-07T19:39:58.374Z,83.44
2017-11-07T19:42:24.736Z,83.12
2017-11-07T19:44:51.030Z,83.32
2017-11-07T19:47:17.280Z,83.62
2017-11-07T19:49:43.471Z,83.74
2017-11-07T19:52:09.776Z,83.58
2017-11-07T19:54:36.451Z,83.51
2017-11-07T19:57:02.681Z,83.55
2017-11-07T19:59:28.932Z,83.69
2017-11-07T20:01:55.195Z,83.78
2017-11-07T20:04:21.492Z,83.69
2017-11-07T20:06:47.682Z,83.60
2017-11-07T20:09:13.951Z,83.56
2017-11-07T20:11:40.238Z,83.87
2017-11-07T20:14:06.604Z,83.73
2017-11-07T20:16:32.875Z,83.45
2017-11-07T20:18:59.094Z,83.31
2017-11-07T20:21:25.383Z,83.13
2017-11-07T20:23:51.657Z,83.21
2017-11-07T20:26:18.226Z,83.26
2017-11-07T20:28:44.407Z,83.42
2017-11-07T20:31:10.541Z,83.09
2017-11-07T20:33:36.807Z,82.61
2017-11-07T20:36:03.067Z,82.20
2017-11-07T20:38:29.353Z,82.30
2017-11-07T20:40:55.543Z,82.64
2017-11-07T20:43:21.675Z,82.45
2017-11-07T20:45:47.860Z,82.78
2017-11-07T20:48:14.247Z,82.57
2017-11-07T20:50:40.456Z,82.63
2017-11-07T20:53:06.666Z,82.82
2017-11-07T20:55:32.841Z,82.83
2017-11-07T20:57:59.043Z,83.27
2017-11-07T21:00:25.285Z,83.40
2017-11-07T21:02:51.464Z,83.19
2017-11-07T21:05:17.613Z,83.23
2017-11-07T21:07:43.732Z,83.16
2017-11-07T21:10:09.829Z,83.35
2017-11-07T21:12:35.954Z,83.29
2017-11-07T21:15:02.041Z,82.68
2017-11-07T21:17:28.174Z,82.46
2017-11-07T21:19:54.319Z,82.22
2017-11-07T21:22:20.471Z,82.83
2017-11-07T21:24:46.565Z,82.71
2017-11-07T21:27:12.783Z,82.34
2017-11-07T21:29:38.891Z,82.49
2017-11-07T21:32:05.020Z,82.48
2017-11-07T21:34:31.206Z,82.54
2017-11-07T21:36:57.650Z,82.58
2017-11-07T21:39:23.698Z,82.72
2017-11-07T21:41:49.823Z,82.84
2017-11-07T21:44:16.011Z,82.95
2017-11-07T21:46:42.090Z,83.26
2017-11-07T21:49:08.232Z,82.98
2017-11-07T21:51:34.310Z,83.05
2017-11-07T21:54:00.421Z,83.50
2017-11-07T21:56:26.590Z,83.51
2017-11-07T21:58:52.709Z,83.57
2017-11-07T22:01:18.862Z,83.81
2017-11-07T22:03:46.959Z,84.05
2017-11-07T22:06:13.074Z,84.36
2017-11-07T22:08:39.154Z,84.42
2017-11-07T22:11:05.255Z,84.59
2017-11-07T22:13:31.394Z,84.97
2017-11-07T22:15:57.590Z,85.26
2017-11-07T22:18:23.678Z,84.83
2017-11-07T22:20:52.780Z,84.62
2017-11-07T22:23:24.683Z,84.69
2017-11-07T22:25:50.772Z,84.70
2017-11-07T22:28:16.903Z,85.00
2017-11-07T22:30:42.951Z,85.32
2017-11-07T22:33:09.020Z,85.69
2017-11-07T22:35:35.108Z,85.60
2017-11-07T22:38:01.118Z,86.09
2017-11-07T22:40:27.218Z,86.14
2017-11-07T22:42:53.355Z,85.95
2017-11-07T22:45:19.457Z,86.05
2017-11-07T22:47:45.547Z,85.49
2017-11-07T22:50:11.633Z,85.82
2017-11-07T22:52:37.715Z,85.24
2017-11-07T22:55:03.922Z,84.79
2017-11-07T22:57:30.058Z,84.63
2017-11-07T22:59:56.124Z,84.45
2017-11-07T23:02:22.203Z,84.57
2017-11-07T23:04:48.388Z,84.77
2017-11-07T23:07:14.610Z,84.64
2017-11-07T23:09:40.707Z,84.84
2017-11-07T23:12:06.811Z,84.77
2017-11-07T23:14:34.874Z,84.79
2017-11-07T23:17:00.958Z,85.06
2017-11-07T23:19:27.108Z,85.25
2017-11-07T23:21:53.378Z,85.45
2017-11-07T23:24:19.444Z,85.60
2017-11-07T23:26:45.582Z,86.03
2017-11-07T23:29:11.662Z,85.86
2017-11-07T23:31:37.807Z,85.91
2017-11-07T23:34:03.899Z,85.78
2017-11-07T23:36:29.974Z,85.82
2017-11-07T23:38:56.103Z,86.00
2017-11-07T23:41:22.187Z,86.02
2017-11-07T23:43:48.299Z,86.17
2017-11-07T23:46:14.366Z,86.46
2017-11-07T23:48:40.423Z,86.51
2017-11-07T23:51:06.524Z,86.93
2017-11-07T23:53:32.606Z,86.80
2017-11-07T23:55:58.831Z,86.84
2017-11-07T23:58:24.936Z,87.06
